createdAt,value
2023-03-19T00:01:05.000Z,0
2023-03-19T00:02:20.000Z,0
2023-03-19T00:03:34.000Z,0
2023-03-19T00:04:48.000Z,0
2023-03-19T00:06:02.000Z,0
2023-03-19T00:07:16.000Z,0
2023-03-19T00:08:31.093Z,0
2023-03-19T00:09:45.000Z,0
2023-03-19T00:10:59.000Z,0
2023-03-19T00:12:14.142Z,0
2023-03-19T00:13:28.000Z,0
2023-03-19T00:14:42.000Z,0
2023-03-19T00:15:57.000Z,0
2023-03-19T00:17:11.000Z,0
2023-03-19T00:18:25.000Z,0
2023-03-19T00:19:40.000Z,0
2023-03-19T00:20:54.000Z,0
2023-03-19T00:22:09.000Z,0
2023-03-19T00:23:22.000Z,0
2023-03-19T00:24:36.000Z,0
2023-03-19T00:25:51.000Z,0
2023-03-19T00:27:05.000Z,0
2023-03-19T00:28:19.000Z,0
2023-03-19T00:29:34.000Z,0
2023-03-19T00:30:48.000Z,0
2023-03-19T00:32:02.000Z,0
2023-03-19T00:33:17.000Z,0
2023-03-19T00:34:31.000Z,0
2023-03-19T00:35:45.000Z,0
2023-03-19T00:37:00.000Z,0
2023-03-19T00:38:14.000Z,0
2023-03-19T00:39:28.000Z,0
2023-03-19T00:40:42.000Z,0
2023-03-19T00:41:56.000Z,0
2023-03-19T00:43:11.000Z,0
2023-03-19T00:44:25.000Z,0
2023-03-19T00:45:39.000Z,0
2023-03-19T00:46:54.000Z,0
2023-03-19T00:48:08.000Z,0
2023-03-19T00:49:22.888Z,0
2023-03-19T00:50:37.000Z,0
2023-03-19T00:51:51.000Z,0
2023-03-19T00:53:05.000Z,0
2023-03-19T00:54:20.000Z,0
2023-03-19T00:55:33.000Z,0
2023-03-19T00:56:48.000Z,0
2023-03-19T00:58:02.000Z,0
2023-03-19T00:59:16.000Z,0
2023-03-19T01:00:31.000Z,0
2023-03-19T01:01:45.000Z,0
2023-03-19T01:02:59.000Z,0
2023-03-19T01:04:14.000Z,0
2023-03-19T01:05:28.000Z,0
2023-03-19T01:06:42.000Z,0
2023-03-19T01:07:57.287Z,0
2023-03-19T01:09:11.000Z,0
2023-03-19T01:11:40.000Z,0
2023-03-19T01:12:53.000Z,0
2023-03-19T01:14:08.000Z,0
2023-03-19T01:15:22.000Z,0
2023-03-19T01:16:36.000Z,0
2023-03-19T01:17:51.000Z,0
2023-03-19T01:19:05.000Z,0
2023-03-19T01:20:19.000Z,0
2023-03-19T01:21:34.000Z,0
2023-03-19T01:22:48.000Z,0
2023-03-19T01:24:02.000Z,0
2023-03-19T01:25:17.000Z,0
2023-03-19T01:26:31.000Z,0
2023-03-19T01:27:45.977Z,0
2023-03-19T01:29:00.000Z,0
2023-03-19T01:30:14.000Z,0
2023-03-19T01:31:29.000Z,0
2023-03-19T01:32:43.000Z,0
2023-03-19T01:33:57.000Z,0
2023-03-19T01:35:12.000Z,0
2023-03-19T01:36:26.000Z,0
2023-03-19T01:37:39.000Z,0
2023-03-19T01:38:54.000Z,0
2023-03-19T01:40:08.000Z,0
2023-03-19T01:41:22.000Z,0
2023-03-19T01:42:37.000Z,0
2023-03-19T01:43:51.000Z,0
2023-03-19T01:45:06.000Z,0
2023-03-19T01:46:20.000Z,0
2023-03-19T01:47:34.000Z,0
2023-03-19T01:48:49.000Z,0
2023-03-19T01:50:03.000Z,0
2023-03-19T01:51:17.000Z,0
2023-03-19T01:52:32.000Z,0
2023-03-19T01:53:46.000Z,0
2023-03-19T01:54:59.000Z,0
2023-03-19T01:56:14.000Z,0
2023-03-19T01:57:28.000Z,0
2023-03-19T01:58:42.000Z,0
2023-03-19T01:59:57.000Z,0
2023-03-19T02:01:11.000Z,0
2023-03-19T02:02:26.018Z,0
2023-03-19T02:03:40.000Z,0
2023-03-19T02:04:54.000Z,0
2023-03-19T02:06:09.000Z,0
2023-03-19T02:07:23.000Z,0
2023-03-19T02:08:37.000Z,0
2023-03-19T02:09:52.000Z,0
2023-03-19T02:11:05.000Z,0
2023-03-19T02:12:19.000Z,0
2023-03-19T02:13:34.000Z,0
2023-03-19T02:14:48.000Z,0
2023-03-19T02:16:02.000Z,0
2023-03-19T02:17:16.000Z,0
2023-03-19T02:18:30.000Z,0
2023-03-19T02:19:45.000Z,0
2023-03-19T02:20:59.452Z,0
2023-03-19T02:22:13.797Z,0
2023-03-19T02:23:28.000Z,0
2023-03-19T02:24:42.000Z,0
2023-03-19T02:25:56.000Z,0
2023-03-19T02:27:11.000Z,0
2023-03-19T02:28:25.000Z,0
2023-03-19T02:29:39.000Z,0
2023-03-19T02:30:54.000Z,0
2023-03-19T02:32:08.000Z,0
2023-03-19T02:33:22.000Z,0
2023-03-19T02:34:36.000Z,0
2023-03-19T02:35:50.000Z,0
2023-03-19T02:37:05.000Z,0
2023-03-19T02:38:19.000Z,0
2023-03-19T02:39:33.000Z,0
2023-03-19T02:40:48.000Z,0
2023-03-19T02:42:02.000Z,0
2023-03-19T02:43:16.000Z,0
2023-03-19T02:44:31.000Z,0
2023-03-19T02:45:45.000Z,0
2023-03-19T02:46:59.000Z,0
2023-03-19T02:48:14.000Z,0
2023-03-19T02:49:27.000Z,0
2023-03-19T02:50:42.000Z,0
2023-03-19T02:51:56.000Z,0
2023-03-19T02:53:10.000Z,0
2023-03-19T02:54:25.000Z,0
2023-03-19T02:55:39.000Z,0
2023-03-19T02:56:53.000Z,0
2023-03-19T02:58:08.000Z,0
2023-03-19T02:59:22.000Z,0
2023-03-19T03:00:36.000Z,0
2023-03-19T03:01:51.000Z,0
2023-03-19T03:03:05.000Z,0
2023-03-19T03:04:19.000Z,0
2023-03-19T03:05:34.000Z,0
2023-03-19T03:06:48.000Z,0
2023-03-19T03:08:03.000Z,0
2023-03-19T03:09:17.000Z,0
2023-03-19T03:10:31.000Z,0
2023-03-19T03:11:46.000Z,0
2023-03-19T03:13:00.000Z,0
2023-03-19T03:14:14.000Z,0
2023-03-19T03:15:28.000Z,0
2023-03-19T03:16:42.000Z,0
2023-03-19T03:17:56.000Z,0
2023-03-19T03:19:11.000Z,0
2023-03-19T03:20:25.000Z,0
2023-03-19T03:21:39.000Z,0
2023-03-19T03:22:54.000Z,0
2023-03-19T03:24:08.000Z,0
2023-03-19T03:25:23.000Z,0
2023-03-19T03:26:37.000Z,0
2023-03-19T03:27:51.000Z,0
2023-03-19T03:29:06.000Z,0
2023-03-19T03:30:20.000Z,0
2023-03-19T03:31:33.000Z,0
2023-03-19T03:32:48.000Z,0
2023-03-19T03:34:02.000Z,0
2023-03-19T03:35:16.000Z,0
2023-03-19T03:36:31.000Z,0
2023-03-19T03:37:45.000Z,0
2023-03-19T03:39:00.000Z,0
2023-03-19T03:40:14.000Z,0
2023-03-19T03:41:28.000Z,0
2023-03-19T03:42:43.000Z,0
2023-03-19T03:43:57.000Z,0
2023-03-19T03:45:11.000Z,0
2023-03-19T03:46:26.110Z,0
2023-03-19T03:47:40.000Z,0
2023-03-19T03:48:54.000Z,0
2023-03-19T03:50:09.000Z,0
2023-03-19T03:51:23.000Z,0
2023-03-19T03:52:38.000Z,0
2023-03-19T03:53:52.000Z,0
2023-03-19T03:55:06.000Z,0
2023-03-19T03:56:21.000Z,0
2023-03-19T03:57:35.000Z,0
2023-03-19T03:58:49.000Z,0
2023-03-19T04:00:04.000Z,0
2023-03-19T04:01:18.000Z,0
2023-03-19T04:02:32.000Z,0
2023-03-19T04:03:47.000Z,0
2023-03-19T04:05:01.000Z,0
2023-03-19T04:06:15.000Z,0
2023-03-19T04:07:30.000Z,0
2023-03-19T04:08:43.000Z,0
2023-03-19T04:09:58.000Z,0
2023-03-19T04:11:12.000Z,0
2023-03-19T04:12:26.000Z,0
2023-03-19T04:13:41.000Z,0
2023-03-19T04:14:55.000Z,0
2023-03-19T04:16:09.000Z,0
2023-03-19T04:17:24.000Z,0
2023-03-19T04:18:38.000Z,0
2023-03-19T04:19:52.000Z,0
2023-03-19T04:21:07.000Z,0
2023-03-19T04:22:21.000Z,0
2023-03-19T04:23:35.000Z,0
2023-03-19T04:24:50.000Z,0
2023-03-19T04:26:04.000Z,0
2023-03-19T04:27:18.000Z,0
2023-03-19T04:28:33.000Z,0
2023-03-19T04:29:46.000Z,0
2023-03-19T04:31:01.000Z,0
2023-03-19T04:32:15.455Z,0
2023-03-19T04:33:29.000Z,0
2023-03-19T04:34:44.000Z,0
2023-03-19T04:35:58.000Z,0
2023-03-19T04:37:12.000Z,0
2023-03-19T04:38:27.000Z,0
2023-03-19T04:39:41.000Z,0
2023-03-19T04:40:55.000Z,0
2023-03-19T04:42:10.000Z,0
2023-03-19T04:43:24.000Z,0
2023-03-19T04:44:38.000Z,0
2023-03-19T04:45:52.000Z,0
2023-03-19T04:47:06.000Z,0
2023-03-19T04:48:20.000Z,0
2023-03-19T04:49:35.000Z,0
2023-03-19T04:50:49.000Z,0
2023-03-19T04:53:18.000Z,0
2023-03-19T04:54:32.000Z,0
2023-03-19T04:55:46.000Z,0
2023-03-19T04:57:01.000Z,0
2023-03-19T04:58:15.000Z,0
2023-03-19T04:59:29.000Z,0
2023-03-19T05:00:43.000Z,0
2023-03-19T05:01:58.000Z,0
2023-03-19T05:03:12.000Z,0
2023-03-19T05:04:25.000Z,0
2023-03-19T05:05:40.000Z,0
2023-03-19T05:06:54.000Z,0
2023-03-19T05:08:08.000Z,0
2023-03-19T05:09:23.064Z,0
2023-03-19T05:10:37.000Z,0
2023-03-19T05:11:51.000Z,0
2023-03-19T05:13:05.000Z,0
2023-03-19T05:14:20.000Z,5
2023-03-19T05:15:34.000Z,5
2023-03-19T05:16:48.000Z,5
2023-03-19T05:18:03.000Z,5
2023-03-19T05:19:17.000Z,5
2023-03-19T05:20:30.000Z,5
2023-03-19T05:21:45.000Z,5
2023-03-19T05:22:59.000Z,11
2023-03-19T05:24:13.000Z,11
2023-03-19T05:25:28.000Z,11
2023-03-19T05:26:42.324Z,11
2023-03-19T05:27:56.000Z,16
2023-03-19T05:29:10.000Z,16
2023-03-19T05:30:25.000Z,16
2023-03-19T05:31:39.000Z,22
2023-03-19T05:32:53.000Z,22
2023-03-19T05:34:08.000Z,22
2023-03-19T05:35:22.000Z,28
2023-03-19T05:36:35.000Z,28
2023-03-19T05:37:50.000Z,33
2023-03-19T05:39:04.000Z,33
2023-03-19T05:40:18.000Z,39
2023-03-19T05:41:33.000Z,39
2023-03-19T05:42:47.000Z,39
2023-03-19T05:44:01.000Z,45
2023-03-19T05:45:15.000Z,45
2023-03-19T05:46:30.000Z,45
2023-03-19T05:47:44.000Z,50
2023-03-19T05:48:58.000Z,50
2023-03-19T05:50:13.000Z,50
2023-03-19T05:51:27.000Z,56
2023-03-19T05:52:41.000Z,56
2023-03-19T05:53:55.000Z,61
2023-03-19T05:55:09.000Z,61
2023-03-19T05:56:23.000Z,67
2023-03-19T05:57:37.000Z,67
2023-03-19T05:58:52.000Z,73
2023-03-19T06:00:06.000Z,73
2023-03-19T06:01:20.000Z,78
2023-03-19T06:02:35.000Z,78
2023-03-19T06:03:49.000Z,78
2023-03-19T06:05:03.000Z,84
2023-03-19T06:06:18.000Z,84
2023-03-19T06:07:32.000Z,90
2023-03-19T06:08:46.000Z,95
2023-03-19T06:10:00.000Z,101
2023-03-19T06:11:14.000Z,106
2023-03-19T06:12:28.000Z,112
2023-03-19T06:13:42.000Z,118
2023-03-19T06:14:57.000Z,123
2023-03-19T06:16:11.000Z,129
2023-03-19T06:17:25.000Z,135
2023-03-19T06:18:40.000Z,140
2023-03-19T06:19:54.000Z,146
2023-03-19T06:21:08.000Z,146
2023-03-19T06:22:23.000Z,151
2023-03-19T06:23:37.000Z,163
2023-03-19T06:24:51.000Z,168
2023-03-19T06:26:05.000Z,174
2023-03-19T06:27:20.000Z,185
2023-03-19T06:28:34.000Z,225
2023-03-19T06:29:48.000Z,326
2023-03-19T06:31:03.000Z,371
2023-03-19T06:32:17.000Z,315
2023-03-19T06:33:30.000Z,292
2023-03-19T06:34:45.000Z,343
2023-03-19T06:35:59.000Z,393
2023-03-19T06:37:13.000Z,483
2023-03-19T06:38:27.000Z,478
2023-03-19T06:39:42.000Z,506
2023-03-19T06:40:56.000Z,275
2023-03-19T06:42:10.872Z,393
2023-03-19T06:43:25.000Z,506
2023-03-19T06:44:39.000Z,641
2023-03-19T06:45:53.000Z,579
2023-03-19T06:47:08.000Z,759
2023-03-19T06:48:22.000Z,714
2023-03-19T06:49:35.000Z,832
2023-03-19T06:50:50.000Z,866
2023-03-19T06:52:04.000Z,618
2023-03-19T06:53:18.000Z,371
2023-03-19T06:54:32.000Z,326
2023-03-19T06:55:47.000Z,320
2023-03-19T06:57:01.000Z,320
2023-03-19T06:58:15.000Z,337
2023-03-19T06:59:30.000Z,337
2023-03-19T07:00:44.000Z,337
2023-03-19T07:01:58.000Z,343
2023-03-19T07:03:13.000Z,348
2023-03-19T07:04:27.000Z,354
2023-03-19T07:05:40.000Z,360
2023-03-19T07:06:54.000Z,365
2023-03-19T07:08:09.000Z,365
2023-03-19T07:09:23.000Z,365
2023-03-19T07:10:37.000Z,365
2023-03-19T07:11:52.000Z,388
2023-03-19T07:13:06.000Z,382
2023-03-19T07:14:20.000Z,382
2023-03-19T07:15:35.000Z,371
2023-03-19T07:16:49.000Z,354
2023-03-19T07:18:03.000Z,360
2023-03-19T07:19:17.000Z,354
2023-03-19T07:20:32.000Z,348
2023-03-19T07:21:46.000Z,354
2023-03-19T07:23:00.000Z,348
2023-03-19T07:24:15.000Z,348
2023-03-19T07:25:29.000Z,343
2023-03-19T07:26:43.000Z,331
2023-03-19T07:27:57.000Z,331
2023-03-19T07:29:11.000Z,326
2023-03-19T07:30:25.000Z,315
2023-03-19T07:31:40.000Z,315
2023-03-19T07:32:54.000Z,320
2023-03-19T07:34:08.000Z,315
2023-03-19T07:36:37.000Z,320
2023-03-19T07:37:51.000Z,320
2023-03-19T07:39:05.000Z,320
2023-03-19T07:40:20.123Z,320
2023-03-19T07:41:34.000Z,320
2023-03-19T07:42:48.000Z,320
2023-03-19T07:44:02.000Z,326
2023-03-19T07:45:16.000Z,326
2023-03-19T07:46:30.000Z,326
2023-03-19T07:47:44.000Z,343
2023-03-19T07:48:59.000Z,348
2023-03-19T07:50:13.000Z,354
2023-03-19T07:51:27.000Z,360
2023-03-19T07:52:42.000Z,360
2023-03-19T07:53:56.475Z,354
2023-03-19T07:55:10.000Z,337
2023-03-19T07:56:25.000Z,348
2023-03-19T07:57:39.000Z,348
2023-03-19T07:58:53.000Z,360
2023-03-19T08:00:07.000Z,365
2023-03-19T08:01:21.000Z,365
2023-03-19T08:02:35.000Z,371
2023-03-19T08:03:49.000Z,376
2023-03-19T08:05:04.241Z,376
2023-03-19T08:06:18.000Z,376
2023-03-19T08:07:32.000Z,388
2023-03-19T08:08:47.000Z,382
2023-03-19T08:10:01.000Z,376
2023-03-19T08:11:15.000Z,376
2023-03-19T08:12:30.000Z,382
2023-03-19T08:13:44.000Z,388
2023-03-19T08:14:58.000Z,388
2023-03-19T08:17:27.000Z,393
2023-03-19T08:18:40.000Z,388
2023-03-19T08:19:54.000Z,382
2023-03-19T08:21:09.000Z,376
2023-03-19T08:22:23.000Z,365
2023-03-19T08:24:52.000Z,354
2023-03-19T08:26:06.000Z,365
2023-03-19T08:27:20.000Z,365
2023-03-19T08:28:35.000Z,365
2023-03-19T08:29:49.000Z,360
2023-03-19T08:31:03.000Z,354
2023-03-19T08:32:17.000Z,348
2023-03-19T08:33:32.000Z,354
2023-03-19T08:34:46.000Z,371
2023-03-19T08:36:00.778Z,371
2023-03-19T08:37:15.000Z,371
2023-03-19T08:38:28.000Z,365
2023-03-19T08:39:42.730Z,360
2023-03-19T08:40:57.000Z,348
2023-03-19T08:42:11.000Z,337
2023-03-19T08:43:25.000Z,331
2023-03-19T08:44:39.000Z,326
2023-03-19T08:45:54.000Z,320
2023-03-19T08:47:08.000Z,309
2023-03-19T08:48:22.000Z,309
2023-03-19T08:49:37.000Z,303
2023-03-19T08:50:51.000Z,298
2023-03-19T08:52:05.000Z,292
2023-03-19T08:53:20.000Z,281
2023-03-19T08:54:34.000Z,286
2023-03-19T08:55:48.000Z,281
2023-03-19T08:57:02.000Z,275
2023-03-19T08:58:16.000Z,270
2023-03-19T08:59:30.000Z,275
2023-03-19T09:00:44.000Z,286
2023-03-19T09:01:59.000Z,292
2023-03-19T09:03:13.000Z,281
2023-03-19T09:04:27.000Z,275
2023-03-19T09:05:42.000Z,270
2023-03-19T09:06:56.000Z,258
2023-03-19T09:09:25.003Z,258
2023-03-19T09:10:39.000Z,270
2023-03-19T09:11:53.000Z,275
2023-03-19T09:13:07.895Z,286
2023-03-19T09:14:21.000Z,298
2023-03-19T09:15:35.000Z,303
2023-03-19T09:16:49.000Z,309
2023-03-19T09:18:04.000Z,309
2023-03-19T09:19:18.000Z,309
2023-03-19T09:20:32.000Z,309
2023-03-19T09:21:47.000Z,309
2023-03-19T09:23:01.000Z,309
2023-03-19T09:24:15.000Z,309
2023-03-19T09:25:29.000Z,309
2023-03-19T09:26:44.000Z,315
2023-03-19T09:27:58.000Z,315
2023-03-19T09:29:12.000Z,309
2023-03-19T09:30:27.000Z,309
2023-03-19T09:31:40.000Z,309
2023-03-19T09:32:54.000Z,309
2023-03-19T09:34:09.000Z,303
2023-03-19T09:35:23.000Z,303
2023-03-19T09:36:37.000Z,303
2023-03-19T09:37:52.000Z,303
2023-03-19T09:39:06.000Z,298
2023-03-19T09:40:20.000Z,298
2023-03-19T09:41:34.000Z,298
2023-03-19T09:42:49.000Z,298
2023-03-19T09:44:03.000Z,298
2023-03-19T09:45:17.000Z,298
2023-03-19T09:46:32.000Z,298
2023-03-19T09:47:45.000Z,292
2023-03-19T09:48:59.000Z,292
2023-03-19T09:50:14.048Z,286
2023-03-19T09:51:28.000Z,286
2023-03-19T09:52:42.000Z,281
2023-03-19T09:53:56.000Z,281
2023-03-19T09:55:11.000Z,281
2023-03-19T09:56:25.000Z,281
2023-03-19T09:57:39.000Z,281
2023-03-19T09:58:54.000Z,286
2023-03-19T10:00:08.000Z,286
2023-03-19T10:01:22.000Z,281
2023-03-19T10:02:37.000Z,281
2023-03-19T10:03:50.397Z,275
2023-03-19T10:05:04.000Z,275
2023-03-19T10:06:19.000Z,275
2023-03-19T10:07:33.000Z,270
2023-03-19T10:08:47.000Z,270
2023-03-19T10:10:01.909Z,264
2023-03-19T10:11:16.000Z,264
2023-03-19T10:12:30.000Z,264
2023-03-19T10:13:44.000Z,264
2023-03-19T10:14:59.000Z,264
2023-03-19T10:16:13.000Z,264
2023-03-19T10:17:27.000Z,270
2023-03-19T10:18:42.000Z,270
2023-03-19T10:19:56.000Z,270
2023-03-19T10:21:10.000Z,270
2023-03-19T10:22:25.000Z,270
2023-03-19T10:23:39.000Z,270
2023-03-19T10:24:53.644Z,270
2023-03-19T10:26:07.000Z,270
2023-03-19T10:27:22.000Z,270
2023-03-19T10:28:36.000Z,270
2023-03-19T10:29:50.848Z,270
2023-03-19T10:31:05.000Z,270
2023-03-19T10:32:19.000Z,270
2023-03-19T10:33:33.000Z,270
2023-03-19T10:34:48.000Z,275
2023-03-19T10:36:02.000Z,281
2023-03-19T10:37:16.000Z,286
2023-03-19T10:38:31.089Z,292
2023-03-19T10:39:45.000Z,292
2023-03-19T10:40:59.000Z,292
2023-03-19T10:42:14.000Z,292
2023-03-19T10:43:28.000Z,286
2023-03-19T10:44:42.000Z,286
2023-03-19T10:45:57.000Z,292
2023-03-19T10:47:11.000Z,281
2023-03-19T10:48:25.000Z,281
2023-03-19T10:49:39.000Z,281
2023-03-19T10:50:54.000Z,281
2023-03-19T10:52:08.508Z,281
2023-03-19T10:53:22.821Z,281
2023-03-19T10:54:37.000Z,281
2023-03-19T10:55:51.000Z,275
2023-03-19T10:57:05.000Z,275
2023-03-19T10:58:20.000Z,270
2023-03-19T10:59:34.000Z,264
2023-03-19T11:00:48.000Z,264
2023-03-19T11:02:03.000Z,253
2023-03-19T11:03:17.000Z,247
2023-03-19T11:04:31.000Z,241
2023-03-19T11:05:45.000Z,236
2023-03-19T11:07:00.000Z,236
2023-03-19T11:08:14.000Z,236
2023-03-19T11:09:28.000Z,236
2023-03-19T11:10:43.143Z,236
2023-03-19T11:11:57.000Z,236
2023-03-19T11:13:11.000Z,236
2023-03-19T11:14:26.000Z,236
2023-03-19T11:15:40.355Z,241
2023-03-19T11:16:53.000Z,241
2023-03-19T11:18:07.000Z,247
2023-03-19T11:19:22.000Z,253
2023-03-19T11:20:36.000Z,253
2023-03-19T11:21:50.000Z,253
2023-03-19T11:23:05.000Z,258
2023-03-19T11:24:19.000Z,258
2023-03-19T11:25:33.000Z,253
2023-03-19T11:26:48.000Z,253
2023-03-19T11:28:02.000Z,253
2023-03-19T11:29:16.000Z,253
2023-03-19T11:30:30.000Z,253
2023-03-19T11:31:45.000Z,253
2023-03-19T11:32:59.596Z,253
2023-03-19T11:34:14.000Z,258
2023-03-19T11:35:28.000Z,258
2023-03-19T11:36:42.000Z,258
2023-03-19T11:37:56.916Z,258
2023-03-19T11:39:11.000Z,264
2023-03-19T11:40:25.000Z,264
2023-03-19T11:41:39.000Z,258
2023-03-19T11:42:54.000Z,258
2023-03-19T11:44:08.000Z,253
2023-03-19T11:45:22.000Z,247
2023-03-19T11:46:37.000Z,247
2023-03-19T11:47:51.000Z,247
2023-03-19T11:49:05.000Z,247
2023-03-19T11:50:18.000Z,247
2023-03-19T11:51:33.000Z,253
2023-03-19T11:52:47.000Z,253
2023-03-19T11:54:01.000Z,258
2023-03-19T11:55:16.184Z,253
2023-03-19T11:56:30.000Z,247
2023-03-19T11:57:44.000Z,247
2023-03-19T11:58:59.000Z,236
2023-03-19T12:00:13.000Z,230
2023-03-19T12:01:27.000Z,225
2023-03-19T12:02:41.000Z,219
2023-03-19T12:03:56.000Z,213
2023-03-19T12:05:10.000Z,208
2023-03-19T12:06:24.000Z,208
2023-03-19T12:07:38.224Z,208
2023-03-19T12:08:52.000Z,208
2023-03-19T12:10:06.000Z,213
2023-03-19T12:11:21.000Z,213
2023-03-19T12:12:35.427Z,213
2023-03-19T12:13:49.000Z,208
2023-03-19T12:15:04.021Z,208
2023-03-19T12:16:18.000Z,208
2023-03-19T12:17:32.000Z,202
2023-03-19T12:18:46.000Z,202
2023-03-19T12:20:01.000Z,196
2023-03-19T12:21:15.524Z,196
2023-03-19T12:22:29.000Z,196
2023-03-19T12:23:43.000Z,191
2023-03-19T12:24:57.000Z,185
2023-03-19T12:26:11.000Z,185
2023-03-19T12:27:26.000Z,180
2023-03-19T12:28:40.000Z,174
2023-03-19T12:29:54.000Z,168
2023-03-19T12:31:08.000Z,168
2023-03-19T12:32:23.000Z,163
2023-03-19T12:33:37.000Z,163
2023-03-19T12:34:51.000Z,157
2023-03-19T12:36:06.000Z,157
2023-03-19T12:37:20.000Z,163
2023-03-19T12:38:34.000Z,163
2023-03-19T12:39:49.000Z,163
2023-03-19T12:41:03.000Z,168
2023-03-19T12:42:17.000Z,168
2023-03-19T12:43:31.000Z,174
2023-03-19T12:44:45.000Z,180
2023-03-19T12:45:59.000Z,185
2023-03-19T12:47:13.000Z,185
2023-03-19T12:48:28.000Z,185
2023-03-19T12:49:42.000Z,191
2023-03-19T12:52:11.000Z,196
2023-03-19T12:53:25.434Z,202
2023-03-19T12:54:39.742Z,208
2023-03-19T12:55:54.000Z,213
2023-03-19T12:57:08.000Z,219
2023-03-19T12:58:22.000Z,213
2023-03-19T12:59:36.000Z,213
2023-03-19T13:00:51.000Z,213
2023-03-19T13:02:05.000Z,219
2023-03-19T13:03:19.000Z,213
2023-03-19T13:04:33.000Z,219
2023-03-19T13:05:47.498Z,219
2023-03-19T13:08:16.085Z,213
2023-03-19T13:09:30.000Z,213
2023-03-19T13:10:44.000Z,208
2023-03-19T13:11:58.000Z,208
2023-03-19T13:13:13.295Z,202
2023-03-19T13:14:27.000Z,191
2023-03-19T13:15:41.000Z,185
2023-03-19T13:16:56.000Z,180
2023-03-19T13:18:10.000Z,168
2023-03-19T13:19:24.000Z,157
2023-03-19T13:20:38.000Z,146
2023-03-19T13:21:52.000Z,140
2023-03-19T13:23:06.000Z,135
2023-03-19T13:24:21.000Z,129
2023-03-19T13:25:35.000Z,129
2023-03-19T13:26:49.000Z,129
2023-03-19T13:28:03.000Z,129
2023-03-19T13:29:18.000Z,135
2023-03-19T13:30:32.000Z,135
2023-03-19T13:31:46.000Z,135
2023-03-19T13:33:01.000Z,135
2023-03-19T13:34:15.000Z,140
2023-03-19T13:35:29.000Z,140
2023-03-19T13:36:43.000Z,135
2023-03-19T13:37:57.385Z,135
2023-03-19T13:39:11.000Z,135
2023-03-19T13:40:25.000Z,135
2023-03-19T13:41:40.000Z,129
2023-03-19T13:42:54.000Z,123
2023-03-19T13:44:08.890Z,123
2023-03-19T13:46:37.000Z,123
2023-03-19T13:47:51.000Z,123
2023-03-19T13:49:06.000Z,123
2023-03-19T13:50:20.000Z,129
2023-03-19T13:51:34.000Z,135
2023-03-19T13:52:48.000Z,140
2023-03-19T13:54:02.000Z,140
2023-03-19T13:55:16.000Z,146
2023-03-19T13:57:45.000Z,146
2023-03-19T13:58:59.000Z,140
2023-03-19T14:00:13.000Z,140
2023-03-19T14:01:28.000Z,135
2023-03-19T14:02:42.000Z,135
2023-03-19T14:03:56.000Z,129
2023-03-19T14:05:11.000Z,129
2023-03-19T14:06:25.356Z,129
2023-03-19T14:07:39.000Z,123
2023-03-19T14:08:53.000Z,123
2023-03-19T14:10:08.000Z,123
2023-03-19T14:11:21.599Z,118
2023-03-19T14:12:35.000Z,118
2023-03-19T14:13:50.000Z,112
2023-03-19T14:15:04.000Z,112
2023-03-19T14:16:18.800Z,112
2023-03-19T14:18:47.000Z,118
2023-03-19T14:20:01.000Z,118
2023-03-19T14:21:15.000Z,123
2023-03-19T14:22:30.000Z,123
2023-03-19T14:23:44.000Z,123
2023-03-19T14:24:58.000Z,129
2023-03-19T14:26:13.000Z,129
2023-03-19T14:27:27.000Z,135
2023-03-19T14:28:41.000Z,135
2023-03-19T14:29:56.000Z,129
2023-03-19T14:31:10.000Z,129
2023-03-19T14:32:24.000Z,129
2023-03-19T14:33:38.000Z,129
2023-03-19T14:34:52.000Z,129
2023-03-19T14:37:20.000Z,123
2023-03-19T14:38:35.000Z,123
2023-03-19T14:39:49.000Z,118
2023-03-19T14:41:03.000Z,118
2023-03-19T14:42:18.160Z,118
2023-03-19T14:43:32.000Z,112
2023-03-19T14:44:46.000Z,112
2023-03-19T14:46:01.000Z,106
2023-03-19T14:47:15.000Z,101
2023-03-19T14:48:29.000Z,95
2023-03-19T14:49:42.000Z,95
2023-03-19T14:52:11.000Z,95
2023-03-19T14:53:25.000Z,90
2023-03-19T14:54:39.000Z,90
2023-03-19T14:55:53.000Z,84
2023-03-19T14:57:07.000Z,78
2023-03-19T14:58:22.000Z,78
2023-03-19T14:59:36.000Z,73
2023-03-19T15:00:50.000Z,73
2023-03-19T15:02:05.000Z,67
2023-03-19T15:03:19.000Z,67
2023-03-19T15:04:33.000Z,67
2023-03-19T15:05:47.000Z,67
2023-03-19T15:07:02.000Z,61
2023-03-19T15:08:16.000Z,61
2023-03-19T15:09:30.000Z,56
2023-03-19T15:10:44.000Z,56
2023-03-19T15:11:58.000Z,50
2023-03-19T15:13:12.000Z,50
2023-03-19T15:14:27.000Z,50
2023-03-19T15:15:41.000Z,50
2023-03-19T15:16:55.000Z,50
2023-03-19T15:18:09.000Z,50
2023-03-19T15:19:24.000Z,56
2023-03-19T15:20:38.000Z,61
2023-03-19T15:21:52.000Z,61
2023-03-19T15:23:07.000Z,61
2023-03-19T15:24:21.000Z,61
2023-03-19T15:25:35.000Z,61
2023-03-19T15:26:50.000Z,61
2023-03-19T15:28:04.000Z,61
2023-03-19T15:29:18.000Z,61
2023-03-19T15:30:32.000Z,61
2023-03-19T15:31:47.320Z,56
2023-03-19T15:33:00.000Z,56
2023-03-19T15:34:14.000Z,56
2023-03-19T15:35:29.269Z,56
2023-03-19T15:36:43.000Z,56
2023-03-19T15:37:57.000Z,50
2023-03-19T15:39:12.000Z,50
2023-03-19T15:40:26.000Z,50
2023-03-19T15:41:40.000Z,45
2023-03-19T15:42:55.000Z,45
2023-03-19T15:44:09.000Z,45
2023-03-19T15:45:23.000Z,45
2023-03-19T15:46:37.000Z,39
2023-03-19T15:47:52.000Z,39
2023-03-19T15:49:05.000Z,33
2023-03-19T15:50:19.000Z,33
2023-03-19T15:51:34.000Z,28
2023-03-19T15:52:48.000Z,28
2023-03-19T15:54:02.000Z,28
2023-03-19T15:55:17.000Z,28
2023-03-19T15:56:31.000Z,28
2023-03-19T15:57:45.000Z,22
2023-03-19T15:59:00.000Z,22
2023-03-19T16:00:14.000Z,28
2023-03-19T16:01:28.000Z,28
2023-03-19T16:02:42.000Z,28
2023-03-19T16:03:57.000Z,28
2023-03-19T16:05:11.000Z,28
2023-03-19T16:06:24.000Z,28
2023-03-19T16:07:39.000Z,28
2023-03-19T16:08:53.000Z,28
2023-03-19T16:10:07.000Z,28
2023-03-19T16:11:22.000Z,28
2023-03-19T16:12:36.000Z,28
2023-03-19T16:13:50.000Z,28
2023-03-19T16:15:04.000Z,28
2023-03-19T16:16:19.000Z,22
2023-03-19T16:17:33.000Z,22
2023-03-19T16:18:47.000Z,22
2023-03-19T16:20:02.000Z,22
2023-03-19T16:21:16.000Z,16
2023-03-19T16:22:30.000Z,16
2023-03-19T16:23:45.000Z,16
2023-03-19T16:24:59.000Z,16
2023-03-19T16:26:12.000Z,16
2023-03-19T16:27:27.000Z,11
2023-03-19T16:28:41.000Z,11
2023-03-19T16:29:55.000Z,11
2023-03-19T16:31:09.000Z,11
2023-03-19T16:32:24.000Z,11
2023-03-19T16:33:38.518Z,11
2023-03-19T16:34:52.000Z,11
2023-03-19T16:36:07.000Z,11
2023-03-19T16:37:21.000Z,11
2023-03-19T16:38:35.000Z,11
2023-03-19T16:39:50.000Z,11
2023-03-19T16:41:04.000Z,11
2023-03-19T16:42:18.000Z,11
2023-03-19T16:43:32.000Z,11
2023-03-19T16:44:46.000Z,11
2023-03-19T16:46:00.000Z,5
2023-03-19T16:47:14.000Z,5
2023-03-19T16:48:29.000Z,5
2023-03-19T16:49:43.000Z,5
2023-03-19T16:50:57.000Z,5
2023-03-19T16:52:12.000Z,5
2023-03-19T16:53:26.000Z,5
2023-03-19T16:54:40.000Z,5
2023-03-19T16:55:54.000Z,5
2023-03-19T16:57:09.000Z,5
2023-03-19T16:58:23.000Z,0
2023-03-19T16:59:37.876Z,0
2023-03-19T17:00:52.186Z,0
2023-03-19T17:02:05.000Z,0
2023-03-19T17:03:19.000Z,0
2023-03-19T17:04:34.000Z,0
2023-03-19T17:05:48.000Z,0
2023-03-19T17:07:02.000Z,0
2023-03-19T17:08:17.000Z,0
2023-03-19T17:09:31.000Z,0
2023-03-19T17:10:45.000Z,0
2023-03-19T17:11:59.000Z,0
2023-03-19T17:13:14.000Z,0
2023-03-19T17:14:28.000Z,0
2023-03-19T17:15:42.000Z,0
2023-03-19T17:16:57.000Z,0
2023-03-19T17:18:10.488Z,0
2023-03-19T17:19:24.000Z,0
2023-03-19T17:20:39.000Z,0
2023-03-19T17:21:53.388Z,0
2023-03-19T17:23:07.000Z,0
2023-03-19T17:24:21.000Z,0
2023-03-19T17:25:36.000Z,0
2023-03-19T17:26:50.000Z,0
2023-03-19T17:28:04.000Z,0
2023-03-19T17:29:19.195Z,0
2023-03-19T17:30:33.000Z,0
2023-03-19T17:31:47.000Z,0
2023-03-19T17:33:02.000Z,0
2023-03-19T17:34:16.000Z,0
2023-03-19T17:35:30.000Z,0
2023-03-19T17:36:44.000Z,0
2023-03-19T17:37:59.000Z,0
2023-03-19T17:40:27.000Z,0
2023-03-19T17:41:41.000Z,0
2023-03-19T17:42:55.000Z,0
2023-03-19T17:44:09.000Z,0
2023-03-19T17:45:24.256Z,0
2023-03-19T17:46:38.543Z,0
2023-03-19T17:47:52.000Z,0
2023-03-19T17:49:07.000Z,0
2023-03-19T17:50:21.000Z,0
2023-03-19T17:51:35.924Z,0
2023-03-19T17:52:50.000Z,0